createdAt,value
2018-11-26T00:01:08.346Z,88.66
2018-11-26T00:03:36.805Z,88.35
2018-11-26T00:06:05.094Z,89.36
2018-11-26T00:08:33.110Z,89.40
2018-11-26T00:11:44.887Z,89.97
2018-11-26T00:14:12.898Z,89.44
2018-11-26T00:16:40.980Z,89.18
2018-11-26T00:19:08.968Z,88.63
2018-11-26T00:21:36.990Z,88.38
2018-11-26T00:24:05.056Z,88.12
2018-11-26T00:26:33.102Z,88.56
2018-11-26T00:29:01.099Z,88.78
2018-11-26T00:31:29.129Z,87.69
2018-11-26T00:33:57.135Z,88.68
2018-11-26T00:36:25.129Z,88.15
2018-11-26T00:38:53.148Z,89.14
2018-11-26T00:41:21.141Z,89.56
2018-11-26T00:43:49.146Z,89.50
2018-11-26T00:46:17.189Z,88.79
2018-11-26T00:48:45.209Z,89.03
2018-11-26T00:51:13.217Z,90.02
2018-11-26T00:53:41.285Z,89.48
2018-11-26T00:56:09.285Z,89.89
2018-11-26T00:58:37.290Z,90.67
2018-11-26T01:01:05.658Z,90.42
2018-11-26T01:03:33.693Z,90.29
2018-11-26T01:06:01.696Z,90.16
2018-11-26T01:08:29.793Z,90.32
2018-11-26T01:10:57.801Z,89.55
2018-11-26T01:13:25.856Z,89.40
2018-11-26T01:15:53.930Z,89.05
2018-11-26T01:18:21.993Z,89.85
2018-11-26T01:20:50.098Z,89.82
2018-11-26T01:23:18.101Z,89.90
2018-11-26T01:25:46.266Z,89.16
2018-11-26T01:28:14.304Z,88.92
2018-11-26T01:30:42.319Z,88.48
2018-11-26T01:33:10.318Z,87.80
2018-11-26T01:35:38.318Z,88.04
2018-11-26T01:38:06.329Z,88.11
2018-11-26T01:40:39.838Z,88.04
2018-11-26T01:43:07.853Z,88.40
2018-11-26T01:45:36.073Z,87.99
2018-11-26T01:48:04.093Z,88.07
2018-11-26T01:50:32.090Z,88.60
2018-11-26T01:53:00.118Z,87.88
2018-11-26T01:55:28.121Z,88.15
2018-11-26T01:57:56.149Z,87.89
2018-11-26T02:00:25.458Z,88.50
2018-11-26T02:02:53.736Z,88.04
2018-11-26T02:05:21.768Z,87.51
2018-11-26T02:07:49.767Z,88.50
2018-11-26T02:10:19.051Z,88.28
2018-11-26T02:12:47.130Z,87.90
2018-11-26T02:15:26.625Z,87.91
2018-11-26T02:17:54.685Z,87.98
2018-11-26T02:20:22.829Z,88.81
2018-11-26T02:22:50.857Z,88.49
2018-11-26T02:25:18.870Z,87.70
2018-11-26T02:27:46.913Z,88.41
2018-11-26T02:30:14.985Z,88.19
2018-11-26T02:32:43.008Z,87.83
2018-11-26T02:35:11.046Z,88.62
2018-11-26T02:37:39.052Z,88.74
2018-11-26T02:40:09.396Z,87.89
2018-11-26T02:42:37.397Z,87.58
2018-11-26T02:45:06.014Z,87.88
2018-11-26T02:47:34.018Z,87.76
2018-11-26T02:50:02.146Z,86.72
2018-11-26T02:52:30.193Z,86.68
2018-11-26T02:54:58.314Z,86.39
2018-11-26T02:57:26.333Z,86.24
2018-11-26T02:59:54.341Z,86.84
2018-11-26T03:02:22.389Z,86.85
2018-11-26T03:04:50.449Z,85.47
2018-11-26T03:07:18.472Z,85.74
2018-11-26T03:09:46.516Z,84.50
2018-11-26T03:12:14.521Z,84.33
2018-11-26T03:14:42.538Z,84.25
2018-11-26T03:17:10.541Z,84.66
2018-11-26T03:19:38.686Z,83.98
2018-11-26T03:22:06.754Z,85.15
2018-11-26T03:24:34.821Z,84.04
2018-11-26T03:27:02.997Z,84.52
2018-11-26T03:29:31.070Z,83.36
2018-11-26T03:31:59.263Z,83.33
2018-11-26T03:34:27.273Z,84.32
2018-11-26T03:36:55.265Z,84.41
2018-11-26T03:39:23.305Z,84.53
2018-11-26T03:41:51.325Z,84.51
2018-11-26T03:44:19.313Z,83.51
2018-11-26T03:46:47.310Z,83.66
2018-11-26T03:49:15.322Z,83.88
2018-11-26T03:51:43.320Z,83.36
2018-11-26T03:54:11.330Z,83.37
2018-11-26T03:56:39.362Z,82.88
2018-11-26T03:59:07.388Z,83.50
2018-11-26T04:01:35.458Z,83.37
2018-11-26T04:04:03.513Z,83.35
2018-11-26T04:06:31.607Z,83.76
2018-11-26T04:08:59.610Z,83.26
2018-11-26T04:11:27.636Z,83.50
2018-11-26T04:13:55.709Z,83.46
2018-11-26T04:16:23.792Z,84.46
2018-11-26T04:18:51.791Z,83.86
2018-11-26T04:21:19.853Z,84.71
2018-11-26T04:23:47.882Z,84.04
2018-11-26T04:26:15.946Z,84.35
2018-11-26T04:28:43.965Z,84.66
2018-11-26T04:31:11.985Z,84.83
2018-11-26T04:33:39.981Z,84.43
2018-11-26T04:36:07.989Z,84.65
2018-11-26T04:38:35.990Z,84.31
2018-11-26T04:41:03.985Z,84.49
2018-11-26T04:43:31.986Z,84.99
2018-11-26T04:46:00.025Z,84.31
2018-11-26T04:48:28.106Z,84.08
2018-11-26T04:50:56.119Z,83.82
2018-11-26T04:53:24.121Z,84.44
2018-11-26T04:55:52.149Z,84.27
2018-11-26T04:58:20.161Z,84.38
2018-11-26T05:00:48.151Z,83.48
2018-11-26T05:03:16.199Z,83.78
2018-11-26T05:05:44.213Z,84.41
2018-11-26T05:08:12.205Z,83.54
2018-11-26T05:10:40.216Z,83.80
2018-11-26T05:13:08.223Z,84.75
2018-11-26T05:15:36.241Z,83.91
2018-11-26T05:18:04.432Z,84.10
2018-11-26T05:20:32.518Z,83.33
2018-11-26T05:23:00.528Z,83.07
2018-11-26T05:25:28.526Z,83.93
2018-11-26T05:27:56.518Z,84.26
2018-11-26T05:30:24.525Z,84.30
2018-11-26T05:32:52.520Z,83.74
2018-11-26T05:35:20.517Z,84.65
2018-11-26T05:37:48.509Z,84.35
2018-11-26T05:40:16.513Z,84.28
2018-11-26T05:42:44.613Z,84.20
2018-11-26T05:45:13.981Z,85.28
2018-11-26T05:47:41.963Z,85.16
2018-11-26T05:50:11.144Z,85.26
2018-11-26T05:52:39.796Z,85.31
2018-11-26T05:55:09.773Z,86.07
2018-11-26T05:57:37.776Z,85.94
2018-11-26T06:00:11.818Z,86.40
2018-11-26T06:02:39.825Z,86.21
2018-11-26T06:05:08.182Z,85.93
2018-11-26T06:07:36.189Z,86.50
2018-11-26T06:10:04.225Z,85.70
2018-11-26T06:12:32.288Z,86.65
2018-11-26T06:15:00.306Z,86.62
2018-11-26T06:17:28.302Z,87.23
2018-11-26T06:19:56.442Z,86.75
2018-11-26T06:22:24.506Z,86.96
2018-11-26T06:24:52.496Z,87.27
2018-11-26T06:27:20.541Z,86.67
2018-11-26T06:29:48.637Z,87.01
2018-11-26T06:32:16.641Z,86.60
2018-11-26T06:34:44.640Z,87.56
2018-11-26T06:37:12.646Z,87.48
2018-11-26T06:39:40.841Z,87.54
2018-11-26T06:42:08.841Z,87.09
2018-11-26T06:44:36.834Z,87.36
2018-11-26T06:47:05.171Z,87.74
2018-11-26T06:49:33.190Z,87.86
2018-11-26T06:52:01.255Z,88.25
2018-11-26T06:54:29.254Z,87.67
2018-11-26T06:56:57.257Z,87.02
2018-11-26T06:59:25.245Z,87.91
2018-11-26T07:01:53.258Z,87.55
2018-11-26T07:04:21.281Z,87.94
2018-11-26T07:06:49.292Z,88.01
2018-11-26T07:09:17.274Z,87.62
2018-11-26T07:11:45.275Z,88.84
2018-11-26T07:14:13.263Z,87.44
2018-11-26T07:16:41.256Z,87.69
2018-11-26T07:19:09.242Z,88.23
2018-11-26T07:21:37.244Z,88.19
2018-11-26T07:24:05.442Z,87.69
2018-11-26T07:26:33.495Z,87.89
2018-11-26T07:29:01.501Z,87.64
2018-11-26T07:31:29.743Z,88.12
2018-11-26T07:33:57.747Z,88.45
2018-11-26T07:36:25.745Z,87.78
2018-11-26T07:38:53.737Z,87.16
2018-11-26T07:41:21.726Z,88.06
2018-11-26T07:43:49.714Z,87.56
2018-11-26T07:46:17.709Z,87.19
2018-11-26T07:48:45.757Z,87.16
2018-11-26T07:51:13.781Z,86.85
2018-11-26T07:53:41.814Z,86.23
2018-11-26T07:56:09.822Z,86.05
2018-11-26T07:58:37.839Z,84.70
2018-11-26T08:01:06.306Z,84.46
2018-11-26T08:03:34.594Z,84.12
2018-11-26T08:06:08.745Z,83.96
2018-11-26T08:08:30.596Z,82.84
2018-11-26T08:10:58.602Z,82.36
2018-11-26T08:13:26.600Z,82.52
2018-11-26T08:15:54.614Z,82.06
2018-11-26T08:18:22.629Z,81.44
2018-11-26T08:20:50.687Z,81.55
2018-11-26T08:23:18.691Z,81.28
2018-11-26T08:25:46.690Z,82.34
2018-11-26T08:28:14.681Z,82.59
2018-11-26T08:30:42.677Z,82.72
2018-11-26T08:33:10.669Z,81.81
2018-11-26T08:35:38.671Z,80.31
2018-11-26T08:38:07.588Z,78.94
2018-11-26T08:40:40.983Z,77.62
2018-11-26T08:43:14.585Z,77.00
2018-11-26T08:45:51.186Z,77.51
2018-11-26T08:48:24.731Z,76.70
2018-11-26T08:50:52.728Z,77.07
2018-11-26T08:53:20.760Z,76.32
2018-11-26T08:55:48.810Z,75.44
2018-11-26T08:58:16.801Z,73.99
2018-11-26T09:00:44.801Z,72.05
2018-11-26T09:03:18.311Z,71.72
2018-11-26T09:05:50.472Z,70.96
2018-11-26T09:08:18.605Z,71.14
2018-11-26T09:10:46.599Z,71.00
2018-11-26T09:13:14.609Z,70.07
2018-11-26T09:15:42.595Z,69.61
2018-11-26T09:18:10.585Z,71.28
2018-11-26T09:20:38.565Z,72.82
2018-11-26T09:23:06.851Z,74.74
2018-11-26T09:25:34.858Z,73.64
2018-11-26T09:28:02.859Z,72.35
2018-11-26T09:30:31.090Z,72.55
2018-11-26T09:32:58.944Z,71.97
2018-11-26T09:35:27.006Z,71.62
2018-11-26T09:37:55.069Z,71.84
2018-11-26T09:40:23.090Z,69.54
2018-11-26T09:42:51.070Z,70.12
2018-11-26T09:45:19.073Z,68.26
2018-11-26T09:47:47.107Z,69.74
2018-11-26T09:50:16.249Z,70.65
2018-11-26T09:52:44.232Z,72.67
2018-11-26T09:55:13.010Z,74.01
2018-11-26T09:57:41.074Z,74.20
2018-11-26T10:00:12.542Z,74.99
2018-11-26T10:02:41.076Z,76.47
2018-11-26T10:05:12.467Z,76.49
2018-11-26T10:07:40.474Z,77.41
2018-11-26T10:10:09.964Z,76.79
2018-11-26T10:12:38.305Z,77.66
2018-11-26T10:15:16.257Z,79.21
2018-11-26T10:17:44.255Z,79.94
2018-11-26T10:20:12.541Z,81.13
2018-11-26T10:22:40.925Z,82.51
2018-11-26T10:25:13.158Z,82.63
2018-11-26T10:27:41.325Z,83.41
2018-11-26T10:30:11.252Z,83.69
2018-11-26T10:32:39.510Z,82.08
2018-11-26T10:35:09.761Z,82.56
2018-11-26T10:37:37.974Z,81.83
2018-11-26T10:40:09.119Z,82.13
2018-11-26T10:42:37.139Z,82.27
2018-11-26T10:45:06.230Z,80.77
2018-11-26T10:47:34.209Z,80.82
2018-11-26T10:50:02.201Z,81.03
2018-11-26T10:52:30.285Z,81.77
2018-11-26T10:54:58.290Z,80.77
2018-11-26T10:57:26.298Z,81.00
2018-11-26T10:59:54.291Z,81.41
2018-11-26T11:02:27.646Z,81.58
2018-11-26T11:04:55.649Z,81.14
2018-11-26T11:07:23.658Z,80.80
2018-11-26T11:09:51.654Z,81.53
2018-11-26T11:12:19.657Z,82.01
2018-11-26T11:14:47.649Z,81.93
2018-11-26T11:17:15.698Z,82.70
2018-11-26T11:19:43.697Z,81.22
2018-11-26T11:22:12.543Z,81.25
2018-11-26T11:24:40.537Z,80.43
2018-11-26T11:27:08.540Z,80.23
2018-11-26T11:29:36.834Z,79.65
2018-11-26T11:32:04.569Z,80.81
2018-11-26T11:34:32.563Z,81.17
2018-11-26T11:37:00.595Z,80.64
2018-11-26T11:39:28.605Z,80.74
2018-11-26T11:41:56.595Z,80.11
2018-11-26T11:44:24.595Z,79.47
2018-11-26T11:46:52.751Z,79.99
2018-11-26T11:49:20.755Z,79.92
2018-11-26T11:51:48.763Z,79.94
2018-11-26T11:54:16.761Z,79.96
2018-11-26T11:56:44.786Z,79.85
2018-11-26T11:59:12.779Z,79.66
2018-11-26T12:01:40.779Z,80.98
2018-11-26T12:04:08.799Z,80.58
2018-11-26T12:06:36.787Z,79.74
2018-11-26T12:09:07.982Z,80.19
2018-11-26T12:11:36.083Z,80.29
2018-11-26T12:14:04.083Z,81.22
2018-11-26T12:16:32.100Z,80.19
2018-11-26T12:19:00.264Z,79.38
2018-11-26T12:21:28.262Z,78.76
2018-11-26T12:23:56.374Z,79.26
2018-11-26T12:26:24.397Z,79.06
2018-11-26T12:28:52.552Z,80.01
2018-11-26T12:31:20.618Z,79.25
2018-11-26T12:33:48.649Z,80.35
2018-11-26T12:36:16.682Z,78.98
2018-11-26T12:38:44.726Z,78.64
2018-11-26T12:41:12.731Z,77.73
2018-11-26T12:43:40.755Z,77.79
2018-11-26T12:46:08.859Z,78.22
2018-11-26T12:48:36.847Z,78.35
2018-11-26T12:51:05.183Z,77.63
2018-11-26T12:53:33.159Z,76.31
2018-11-26T12:56:01.130Z,76.49
2018-11-26T12:58:29.134Z,76.61
2018-11-26T13:00:57.125Z,77.23
2018-11-26T13:03:25.117Z,77.15
2018-11-26T13:05:53.100Z,77.67
2018-11-26T13:08:21.099Z,77.12
2018-11-26T13:10:49.143Z,78.28
2018-11-26T13:13:17.290Z,77.43
2018-11-26T13:15:45.326Z,76.83
2018-11-26T13:18:13.334Z,78.27
2018-11-26T13:20:41.350Z,77.04
2018-11-26T13:23:09.904Z,77.55
2018-11-26T13:25:41.802Z,77.39
2018-11-26T13:28:07.835Z,76.94
2018-11-26T13:30:41.359Z,76.79
2018-11-26T13:33:11.891Z,77.62
2018-11-26T13:35:39.883Z,75.59
2018-11-26T13:38:08.633Z,75.70
2018-11-26T13:40:36.633Z,75.12
2018-11-26T13:43:07.639Z,75.03
2018-11-26T13:45:37.191Z,76.83
2018-11-26T13:48:07.154Z,75.97
2018-11-26T13:50:36.871Z,74.90
2018-11-26T13:53:05.369Z,75.47
2018-11-26T13:55:33.342Z,75.00
2018-11-26T13:58:01.458Z,75.43
2018-11-26T14:00:29.440Z,74.63
2018-11-26T14:02:57.446Z,74.88
2018-11-26T14:05:25.459Z,74.43
2018-11-26T14:07:53.511Z,73.59
2018-11-26T14:10:23.667Z,74.86
2018-11-26T14:13:01.160Z,74.60
2018-11-26T14:15:29.203Z,73.76
2018-11-26T14:17:57.207Z,73.12
2018-11-26T14:20:25.252Z,73.00
2018-11-26T14:22:53.232Z,72.94
2018-11-26T14:25:21.216Z,70.90
2018-11-26T14:27:49.432Z,71.47
2018-11-26T14:30:22.671Z,72.39
2018-11-26T14:32:50.675Z,72.41
2018-11-26T14:35:18.662Z,72.51
2018-11-26T14:37:48.895Z,72.22
2018-11-26T14:40:28.915Z,72.18
2018-11-26T14:42:56.934Z,72.98
2018-11-26T14:45:24.973Z,72.55
2018-11-26T14:47:53.079Z,71.57
2018-11-26T14:50:21.059Z,71.95
2018-11-26T14:52:49.699Z,71.55
2018-11-26T14:55:20.923Z,71.99
2018-11-26T14:57:48.937Z,71.94
2018-11-26T15:00:17.995Z,71.98
2018-11-26T15:02:46.000Z,71.94
2018-11-26T15:05:14.254Z,71.93
2018-11-26T15:07:42.251Z,71.21
2018-11-26T15:10:17.078Z,71.46
2018-11-26T15:12:45.501Z,72.03
2018-11-26T15:15:18.911Z,71.82
2018-11-26T15:17:46.931Z,73.27
2018-11-26T15:20:17.075Z,72.97
2018-11-26T15:22:45.077Z,73.30
2018-11-26T15:25:14.191Z,72.94
2018-11-26T15:27:42.283Z,73.68
2018-11-26T15:30:12.432Z,74.04
2018-11-26T15:32:46.970Z,74.17
2018-11-26T15:35:16.091Z,74.51
2018-11-26T15:37:44.282Z,74.56
2018-11-26T15:40:13.235Z,75.13
2018-11-26T15:42:41.267Z,74.88
2018-11-26T15:45:40.242Z,75.50
2018-11-26T15:48:09.815Z,75.42
2018-11-26T15:50:37.835Z,75.26
2018-11-26T15:53:06.864Z,75.39
2018-11-26T15:55:34.875Z,76.17
2018-11-26T15:58:02.866Z,75.49
2018-11-26T16:00:30.865Z,75.43
2018-11-26T16:02:58.932Z,75.83
2018-11-26T16:05:30.169Z,76.56
2018-11-26T16:08:02.797Z,75.96
2018-11-26T16:10:30.798Z,75.68
2018-11-26T16:13:00.243Z,75.46
2018-11-26T16:15:29.730Z,75.47
2018-11-26T16:17:59.287Z,75.33
2018-11-26T16:20:27.930Z,76.22
2018-11-26T16:22:56.847Z,75.55
2018-11-26T16:25:25.207Z,75.71
2018-11-26T16:27:53.222Z,75.41
2018-11-26T16:30:21.219Z,76.08
2018-11-26T16:32:53.697Z,76.17
2018-11-26T16:35:28.138Z,75.16
2018-11-26T16:37:56.131Z,76.19
2018-11-26T16:40:24.135Z,76.25
2018-11-26T16:42:52.187Z,76.91
2018-11-26T16:45:21.368Z,77.12
2018-11-26T16:47:50.532Z,76.88
2018-11-26T16:50:19.644Z,77.46
2018-11-26T16:52:47.731Z,77.02
2018-11-26T16:55:16.523Z,77.99
2018-11-26T16:57:44.523Z,78.03
2018-11-26T17:00:17.403Z,77.51
2018-11-26T17:02:46.158Z,77.65
2018-11-26T17:05:16.420Z,77.83
2018-11-26T17:07:44.467Z,76.85
2018-11-26T17:10:12.550Z,77.49
2018-11-26T17:12:41.047Z,77.03
2018-11-26T17:15:11.804Z,76.78
2018-11-26T17:17:39.815Z,77.28
2018-11-26T17:20:09.587Z,77.78
2018-11-26T17:22:37.603Z,77.46
2018-11-26T17:25:07.215Z,77.45
2018-11-26T17:27:35.228Z,77.86
2018-11-26T17:30:04.686Z,78.32
2018-11-26T17:32:32.734Z,79.42
2018-11-26T17:35:00.763Z,78.84
2018-11-26T17:37:28.768Z,78.81
2018-11-26T17:39:56.787Z,79.67
2018-11-26T17:42:24.802Z,79.41
2018-11-26T17:44:52.824Z,79.66
2018-11-26T17:47:20.823Z,78.24
2018-11-26T17:49:48.845Z,78.24
2018-11-26T17:52:16.832Z,78.39
2018-11-26T17:54:44.883Z,79.00
2018-11-26T17:57:12.874Z,77.76
2018-11-26T17:59:40.914Z,78.58
2018-11-26T18:02:08.914Z,77.91
2018-11-26T18:04:36.916Z,78.65
2018-11-26T18:07:04.918Z,78.08
2018-11-26T18:09:32.999Z,77.50
2018-11-26T18:12:01.075Z,78.45
2018-11-26T18:14:29.067Z,78.52
2018-11-26T18:16:57.194Z,79.00
2018-11-26T18:19:25.249Z,77.93
2018-11-26T18:21:53.255Z,78.51
2018-11-26T18:24:21.274Z,78.10
2018-11-26T18:26:49.321Z,77.89
2018-11-26T18:29:17.365Z,78.25
2018-11-26T18:31:45.507Z,77.70
2018-11-26T18:34:13.500Z,77.14
2018-11-26T18:36:41.574Z,77.62
2018-11-26T18:39:10.419Z,78.57
2018-11-26T18:41:38.455Z,77.15
2018-11-26T18:44:06.870Z,77.55
2018-11-26T18:46:34.913Z,78.57
2018-11-26T18:49:03.000Z,78.25
2018-11-26T18:51:31.199Z,78.30
2018-11-26T18:53:59.193Z,77.95
2018-11-26T18:56:27.227Z,78.07
2018-11-26T18:58:55.282Z,78.06
2018-11-26T19:01:23.306Z,78.04
2018-11-26T19:03:51.367Z,78.41
2018-11-26T19:06:19.428Z,77.85
2018-11-26T19:08:47.424Z,78.26
2018-11-26T19:11:16.834Z,78.03
2018-11-26T19:13:50.975Z,77.62
2018-11-26T19:16:21.399Z,78.47
2018-11-26T19:18:49.411Z,77.93
2018-11-26T19:21:17.495Z,78.87
2018-11-26T19:23:45.773Z,78.69
2018-11-26T19:26:13.765Z,78.11
2018-11-26T19:28:41.757Z,78.87
2018-11-26T19:31:09.804Z,79.39
2018-11-26T19:33:37.796Z,79.84
2018-11-26T19:36:06.584Z,78.88
2018-11-26T19:38:34.633Z,78.75
2018-11-26T19:41:02.773Z,78.82
2018-11-26T19:43:30.978Z,77.93
2018-11-26T19:45:58.986Z,78.41
2018-11-26T19:48:27.015Z,78.40
2018-11-26T19:50:55.060Z,77.53
2018-11-26T19:53:23.067Z,78.62
2018-11-26T19:55:51.537Z,78.62
2018-11-26T19:58:19.170Z,78.04
2018-11-26T20:00:47.247Z,77.82
2018-11-26T20:03:19.921Z,77.63
2018-11-26T20:05:55.907Z,78.15
2018-11-26T20:08:23.900Z,78.34
2018-11-26T20:10:52.227Z,78.49
2018-11-26T20:13:20.294Z,78.61
2018-11-26T20:15:48.316Z,78.44
2018-11-26T20:18:16.368Z,79.45
2018-11-26T20:20:44.537Z,79.45
2018-11-26T20:23:12.532Z,78.75
2018-11-26T20:25:41.697Z,78.80
2018-11-26T20:28:09.778Z,78.35
2018-11-26T20:30:37.941Z,78.59
2018-11-26T20:33:06.640Z,77.68
2018-11-26T20:35:34.850Z,78.08
2018-11-26T20:38:03.971Z,79.06
2018-11-26T20:40:32.007Z,79.65
2018-11-26T20:43:00.035Z,79.37
2018-11-26T20:45:28.129Z,78.41
2018-11-26T20:47:56.242Z,78.83
2018-11-26T20:50:26.362Z,78.08
2018-11-26T20:52:54.382Z,78.15
2018-11-26T20:55:23.653Z,78.30
2018-11-26T20:57:52.720Z,78.64
2018-11-26T21:00:21.906Z,78.07
2018-11-26T21:02:51.282Z,79.38
2018-11-26T21:05:19.344Z,80.29
2018-11-26T21:07:47.369Z,80.63
2018-11-26T21:10:16.168Z,79.97
2018-11-26T21:12:44.206Z,79.73
2018-11-26T21:15:13.567Z,79.61
2018-11-26T21:17:42.365Z,79.11
2018-11-26T21:20:15.220Z,79.80
2018-11-26T21:22:43.226Z,79.48
2018-11-26T21:25:13.937Z,79.54
2018-11-26T21:27:41.945Z,79.36
2018-11-26T21:30:16.933Z,79.18
2018-11-26T21:32:45.041Z,79.61
2018-11-26T21:35:15.210Z,79.36
2018-11-26T21:37:44.522Z,80.14
2018-11-26T21:40:13.623Z,79.92
2018-11-26T21:42:42.956Z,80.21
2018-11-26T21:45:13.499Z,80.94
2018-11-26T21:47:41.510Z,81.06
2018-11-26T21:50:11.093Z,81.42
2018-11-26T21:52:39.223Z,81.13
2018-11-26T21:55:15.911Z,79.83
2018-11-26T21:57:43.973Z,80.20
2018-11-26T22:00:21.088Z,80.56
2018-11-26T22:02:49.279Z,80.99
2018-11-26T22:05:17.288Z,81.33
2018-11-26T22:07:45.291Z,81.44
2018-11-26T22:10:14.403Z,81.37
2018-11-26T22:12:43.323Z,81.70
2018-11-26T22:15:12.527Z,81.79
2018-11-26T22:17:40.758Z,81.75
2018-11-26T22:20:11.427Z,80.96
2018-11-26T22:22:39.451Z,80.72
2018-11-26T22:25:08.839Z,80.63
2018-11-26T22:27:36.968Z,80.40
2018-11-26T22:30:09.230Z,79.44
2018-11-26T22:32:37.225Z,80.14
2018-11-26T22:35:05.767Z,80.79
2018-11-26T22:37:33.792Z,80.63
2018-11-26T22:40:01.862Z,81.11
2018-11-26T22:42:29.879Z,80.79
2018-11-26T22:44:58.112Z,81.35
2018-11-26T22:47:26.131Z,81.05
2018-11-26T22:49:54.218Z,80.61
2018-11-26T22:52:22.207Z,81.04
2018-11-26T22:54:51.231Z,81.62
2018-11-26T22:57:19.223Z,81.76
2018-11-26T22:59:47.274Z,81.02
2018-11-26T23:02:15.275Z,82.30
2018-11-26T23:04:43.402Z,82.99
2018-11-26T23:07:11.425Z,82.45
2018-11-26T23:09:40.565Z,82.96
2018-11-26T23:12:08.575Z,82.43
2018-11-26T23:14:36.588Z,83.01
2018-11-26T23:17:04.596Z,82.40
2018-11-26T23:19:32.640Z,83.92
2018-11-26T23:22:00.622Z,84.15
2018-11-26T23:24:28.682Z,83.70
2018-11-26T23:26:56.731Z,83.26
2018-11-26T23:29:24.723Z,83.94
2018-11-26T23:31:52.785Z,83.34
2018-11-26T23:34:20.775Z,82.94
2018-11-26T23:36:48.776Z,83.04
2018-11-26T23:39:16.876Z,82.14
2018-11-26T23:41:44.917Z,82.07
2018-11-26T23:44:12.895Z,83.34
2018-11-26T23:46:40.955Z,82.44
2018-11-26T23:49:08.963Z,83.25
2018-11-26T23:51:36.963Z,81.74
2018-11-26T23:54:05.037Z,81.46
2018-11-26T23:56:33.042Z,81.81
2018-11-26T23:59:01.134Z,82.34
